sensor_id;sensor_type;location;lat;lon;timestamp;P1;durP1;ratioP1;P2;durP2;ratioP2
21848;SDS011;11089;49.852;19.700;2022-08-06T00:00:28;10.68;;;8.50;;
21848;SDS011;11089;49.852;19.700;2022-08-06T00:03:28;12.80;;;8.30;;
21848;SDS011;11089;49.852;19.700;2022-08-06T00:06:29;10.43;;;8.27;;
21848;SDS011;11089;49.852;19.700;2022-08-06T00:09:30;9.70;;;8.00;;
21848;SDS011;11089;49.852;19.700;2022-08-06T00:12:33;9.77;;;8.00;;
21848;SDS011;11089;49.852;19.700;2022-08-06T00:15:34;11.35;;;8.63;;
21848;SDS011;11089;49.852;19.700;2022-08-06T00:18:35;9.98;;;8.90;;
21848;SDS011;11089;49.852;19.700;2022-08-06T00:21:36;11.88;;;8.48;;
21848;SDS011;11089;49.852;19.700;2022-08-06T00:24:37;8.77;;;7.13;;
21848;SDS011;11089;49.852;19.700;2022-08-06T00:27:38;11.50;;;8.07;;
21848;SDS011;11089;49.852;19.700;2022-08-06T00:30:39;10.20;;;7.70;;
21848;SDS011;11089;49.852;19.700;2022-08-06T00:33:40;11.85;;;7.88;;
21848;SDS011;11089;49.852;19.700;2022-08-06T00:36:41;10.00;;;8.32;;
21848;SDS011;11089;49.852;19.700;2022-08-06T00:39:42;10.55;;;8.35;;
21848;SDS011;11089;49.852;19.700;2022-08-06T00:42:43;9.75;;;8.38;;
21848;SDS011;11089;49.852;19.700;2022-08-06T00:45:44;9.30;;;7.78;;
21848;SDS011;11089;49.852;19.700;2022-08-06T00:48:45;9.43;;;7.75;;
21848;SDS011;11089;49.852;19.700;2022-08-06T00:51:46;10.40;;;8.13;;
21848;SDS011;11089;49.852;19.700;2022-08-06T00:54:47;10.75;;;7.93;;
21848;SDS011;11089;49.852;19.700;2022-08-06T00:57:48;9.85;;;8.40;;
21848;SDS011;11089;49.852;19.700;2022-08-06T01:00:49;9.75;;;8.18;;
21848;SDS011;11089;49.852;19.700;2022-08-06T01:03:50;9.40;;;7.75;;
21848;SDS011;11089;49.852;19.700;2022-08-06T01:06:50;9.45;;;8.27;;
21848;SDS011;11089;49.852;19.700;2022-08-06T01:09:51;10.20;;;8.75;;
21848;SDS011;11089;49.852;19.700;2022-08-06T01:12:52;10.98;;;8.68;;
21848;SDS011;11089;49.852;19.700;2022-08-06T01:28:56;12.25;;;8.80;;
21848;SDS011;11089;49.852;19.700;2022-08-06T01:32:14;11.85;;;8.43;;
21848;SDS011;11089;49.852;19.700;2022-08-06T01:35:18;10.57;;;8.52;;
21848;SDS011;11089;49.852;19.700;2022-08-06T01:38:33;11.25;;;8.60;;
21848;SDS011;11089;49.852;19.700;2022-08-06T01:41:41;12.15;;;9.45;;
21848;SDS011;11089;49.852;19.700;2022-08-06T01:44:46;10.60;;;8.45;;
21848;SDS011;11089;49.852;19.700;2022-08-06T01:47:52;12.82;;;9.13;;
21848;SDS011;11089;49.852;19.700;2022-08-06T01:50:58;11.57;;;8.90;;
21848;SDS011;11089;49.852;19.700;2022-08-06T01:54:03;9.52;;;8.52;;
21848;SDS011;11089;49.852;19.700;2022-08-06T01:57:06;10.05;;;8.05;;
21848;SDS011;11089;49.852;19.700;2022-08-06T02:00:10;11.48;;;8.85;;
21848;SDS011;11089;49.852;19.700;2022-08-06T02:03:18;11.20;;;9.18;;
21848;SDS011;11089;49.852;19.700;2022-08-06T02:06:37;14.35;;;8.98;;
21848;SDS011;11089;49.852;19.700;2022-08-06T02:09:43;11.07;;;8.90;;
21848;SDS011;11089;49.852;19.700;2022-08-06T02:12:46;10.52;;;9.27;;
21848;SDS011;11089;49.852;19.700;2022-08-06T02:15:48;10.77;;;8.98;;
21848;SDS011;11089;49.852;19.700;2022-08-06T02:18:51;14.10;;;9.65;;
21848;SDS011;11089;49.852;19.700;2022-08-06T02:21:54;14.07;;;9.23;;
21848;SDS011;11089;49.852;19.700;2022-08-06T02:25:00;17.60;;;10.48;;
21848;SDS011;11089;49.852;19.700;2022-08-06T02:28:03;14.98;;;10.40;;
21848;SDS011;11089;49.852;19.700;2022-08-06T02:31:06;12.95;;;9.45;;
21848;SDS011;11089;49.852;19.700;2022-08-06T02:34:07;13.48;;;10.50;;
21848;SDS011;11089;49.852;19.700;2022-08-06T02:37:18;13.23;;;10.00;;
21848;SDS011;11089;49.852;19.700;2022-08-06T02:40:24;14.02;;;10.25;;
21848;SDS011;11089;49.852;19.700;2022-08-06T02:43:34;13.60;;;10.40;;
21848;SDS011;11089;49.852;19.700;2022-08-06T02:46:38;12.45;;;9.05;;
21848;SDS011;11089;49.852;19.700;2022-08-06T02:49:45;12.75;;;10.15;;
21848;SDS011;11089;49.852;19.700;2022-08-06T02:52:55;13.57;;;10.40;;
21848;SDS011;11089;49.852;19.700;2022-08-06T02:56:08;11.77;;;10.13;;
21848;SDS011;11089;49.852;19.700;2022-08-06T02:59:15;14.98;;;10.60;;
21848;SDS011;11089;49.852;19.700;2022-08-06T03:02:22;17.55;;;10.55;;
21848;SDS011;11089;49.852;19.700;2022-08-06T03:05:25;16.08;;;10.68;;
21848;SDS011;11089;49.852;19.700;2022-08-06T03:08:27;15.95;;;10.25;;
21848;SDS011;11089;49.852;19.700;2022-08-06T03:11:32;11.77;;;9.68;;
21848;SDS011;11089;49.852;19.700;2022-08-06T03:14:35;14.07;;;9.65;;
21848;SDS011;11089;49.852;19.700;2022-08-06T03:17:39;11.75;;;9.93;;
21848;SDS011;11089;49.852;19.700;2022-08-06T03:20:41;13.02;;;9.73;;
21848;SDS011;11089;49.852;19.700;2022-08-06T03:23:45;15.90;;;9.88;;
21848;SDS011;11089;49.852;19.700;2022-08-06T03:26:51;13.18;;;10.20;;
21848;SDS011;11089;49.852;19.700;2022-08-06T03:30:00;10.52;;;9.23;;
21848;SDS011;11089;49.852;19.700;2022-08-06T03:33:02;13.25;;;9.25;;
21848;SDS011;11089;49.852;19.700;2022-08-06T03:36:05;15.70;;;10.77;;
21848;SDS011;11089;49.852;19.700;2022-08-06T03:39:07;12.98;;;9.50;;
21848;SDS011;11089;49.852;19.700;2022-08-06T03:42:10;12.82;;;9.70;;
21848;SDS011;11089;49.852;19.700;2022-08-06T03:45:11;17.42;;;9.60;;
21848;SDS011;11089;49.852;19.700;2022-08-06T03:48:13;11.25;;;9.43;;
21848;SDS011;11089;49.852;19.700;2022-08-06T03:51:17;12.02;;;8.85;;
21848;SDS011;11089;49.852;19.700;2022-08-06T03:54:25;11.75;;;9.30;;
21848;SDS011;11089;49.852;19.700;2022-08-06T03:57:34;10.65;;;9.05;;
21848;SDS011;11089;49.852;19.700;2022-08-06T04:00:42;10.63;;;8.82;;
21848;SDS011;11089;49.852;19.700;2022-08-06T04:03:49;10.68;;;9.15;;
21848;SDS011;11089;49.852;19.700;2022-08-06T04:06:51;12.60;;;8.77;;
21848;SDS011;11089;49.852;19.700;2022-08-06T04:09:58;11.23;;;8.93;;
21848;SDS011;11089;49.852;19.700;2022-08-06T04:13:02;12.80;;;9.52;;
21848;SDS011;11089;49.852;19.700;2022-08-06T04:16:04;11.57;;;8.75;;
21848;SDS011;11089;49.852;19.700;2022-08-06T04:19:07;14.52;;;9.52;;
21848;SDS011;11089;49.852;19.700;2022-08-06T04:22:10;11.77;;;9.60;;
21848;SDS011;11089;49.852;19.700;2022-08-06T04:25:11;14.20;;;10.15;;
21848;SDS011;11089;49.852;19.700;2022-08-06T04:28:13;14.63;;;10.45;;
21848;SDS011;11089;49.852;19.700;2022-08-06T04:31:15;18.02;;;10.50;;
21848;SDS011;11089;49.852;19.700;2022-08-06T04:34:22;13.90;;;10.07;;
21848;SDS011;11089;49.852;19.700;2022-08-06T04:37:24;14.63;;;9.80;;
21848;SDS011;11089;49.852;19.700;2022-08-06T04:40:25;15.25;;;9.80;;
21848;SDS011;11089;49.852;19.700;2022-08-06T04:43:27;14.15;;;9.48;;
21848;SDS011;11089;49.852;19.700;2022-08-06T04:46:29;11.55;;;9.82;;
21848;SDS011;11089;49.852;19.700;2022-08-06T04:49:32;11.77;;;9.38;;
21848;SDS011;11089;49.852;19.700;2022-08-06T04:52:33;11.90;;;9.60;;
21848;SDS011;11089;49.852;19.700;2022-08-06T04:55:34;11.63;;;9.00;;
21848;SDS011;11089;49.852;19.700;2022-08-06T04:58:35;14.38;;;10.20;;
21848;SDS011;11089;49.852;19.700;2022-08-06T05:01:36;13.80;;;9.40;;
21848;SDS011;11089;49.852;19.700;2022-08-06T05:04:38;11.20;;;9.40;;
21848;SDS011;11089;49.852;19.700;2022-08-06T05:07:39;11.95;;;8.68;;
21848;SDS011;11089;49.852;19.700;2022-08-06T05:11:16;12.75;;;8.70;;
21848;SDS011;11089;49.852;19.700;2022-08-06T05:17:45;12.20;;;9.98;;
21848;SDS011;11089;49.852;19.700;2022-08-06T05:20:53;10.80;;;8.80;;
21848;SDS011;11089;49.852;19.700;2022-08-06T05:23:55;11.13;;;8.73;;
21848;SDS011;11089;49.852;19.700;2022-08-06T05:26:57;11.65;;;8.38;;
21848;SDS011;11089;49.852;19.700;2022-08-06T05:29:59;15.07;;;8.52;;
21848;SDS011;11089;49.852;19.700;2022-08-06T05:33:02;11.73;;;9.15;;
21848;SDS011;11089;49.852;19.700;2022-08-06T05:36:07;10.43;;;8.93;;
21848;SDS011;11089;49.852;19.700;2022-08-06T05:39:09;14.57;;;8.75;;
21848;SDS011;11089;49.852;19.700;2022-08-06T05:42:10;11.60;;;8.25;;
21848;SDS011;11089;49.852;19.700;2022-08-06T05:45:11;11.43;;;9.27;;
21848;SDS011;11089;49.852;19.700;2022-08-06T05:48:18;14.38;;;9.82;;
21848;SDS011;11089;49.852;19.700;2022-08-06T05:51:24;11.55;;;9.13;;
21848;SDS011;11089;49.852;19.700;2022-08-06T05:57:44;12.68;;;8.38;;
21848;SDS011;11089;49.852;19.700;2022-08-06T06:00:58;9.45;;;8.30;;
21848;SDS011;11089;49.852;19.700;2022-08-06T06:04:02;12.07;;;8.90;;
21848;SDS011;11089;49.852;19.700;2022-08-06T06:07:03;12.15;;;8.80;;
21848;SDS011;11089;49.852;19.700;2022-08-06T06:10:04;11.10;;;8.82;;
21848;SDS011;11089;49.852;19.700;2022-08-06T06:13:07;10.88;;;8.38;;
21848;SDS011;11089;49.852;19.700;2022-08-06T06:16:21;12.15;;;8.90;;
21848;SDS011;11089;49.852;19.700;2022-08-06T06:19:35;11.75;;;7.80;;
21848;SDS011;11089;49.852;19.700;2022-08-06T06:26:15;9.38;;;7.40;;
21848;SDS011;11089;49.852;19.700;2022-08-06T06:39:42;10.18;;;7.90;;
21848;SDS011;11089;49.852;19.700;2022-08-06T06:43:04;9.23;;;6.82;;
21848;SDS011;11089;49.852;19.700;2022-08-06T06:49:37;8.63;;;7.72;;
21848;SDS011;11089;49.852;19.700;2022-08-06T06:52:45;9.82;;;7.28;;
21848;SDS011;11089;49.852;19.700;2022-08-06T06:55:50;10.18;;;7.72;;
21848;SDS011;11089;49.852;19.700;2022-08-06T07:02:16;9.70;;;6.93;;
21848;SDS011;11089;49.852;19.700;2022-08-06T07:05:22;8.15;;;7.05;;
21848;SDS011;11089;49.852;19.700;2022-08-06T07:08:24;8.10;;;6.78;;
21848;SDS011;11089;49.852;19.700;2022-08-06T07:11:28;10.07;;;7.53;;
21848;SDS011;11089;49.852;19.700;2022-08-06T07:14:31;11.35;;;7.88;;
21848;SDS011;11089;49.852;19.700;2022-08-06T07:17:36;9.25;;;7.45;;
21848;SDS011;11089;49.852;19.700;2022-08-06T07:20:38;10.45;;;7.90;;
21848;SDS011;11089;49.852;19.700;2022-08-06T07:23:41;8.98;;;7.90;;
21848;SDS011;11089;49.852;19.700;2022-08-06T07:26:45;8.73;;;7.55;;
21848;SDS011;11089;49.852;19.700;2022-08-06T07:29:46;12.50;;;8.32;;
21848;SDS011;11089;49.852;19.700;2022-08-06T07:32:48;9.60;;;8.00;;
21848;SDS011;11089;49.852;19.700;2022-08-06T07:35:50;10.65;;;7.53;;
21848;SDS011;11089;49.852;19.700;2022-08-06T07:38:53;12.32;;;8.68;;
21848;SDS011;11089;49.852;19.700;2022-08-06T07:42:00;8.90;;;8.00;;
21848;SDS011;11089;49.852;19.700;2022-08-06T07:45:06;11.27;;;8.18;;
21848;SDS011;11089;49.852;19.700;2022-08-06T07:48:10;9.45;;;8.43;;
21848;SDS011;11089;49.852;19.700;2022-08-06T07:51:12;12.77;;;8.82;;
21848;SDS011;11089;49.852;19.700;2022-08-06T07:54:16;8.77;;;7.88;;
21848;SDS011;11089;49.852;19.700;2022-08-06T07:57:18;11.55;;;8.40;;
21848;SDS011;11089;49.852;19.700;2022-08-06T08:00:20;10.10;;;8.32;;
21848;SDS011;11089;49.852;19.700;2022-08-06T08:03:22;11.38;;;8.90;;
21848;SDS011;11089;49.852;19.700;2022-08-06T08:06:37;11.05;;;7.90;;
21848;SDS011;11089;49.852;19.700;2022-08-06T08:09:39;9.90;;;7.80;;
21848;SDS011;11089;49.852;19.700;2022-08-06T08:12:43;11.07;;;7.95;;
21848;SDS011;11089;49.852;19.700;2022-08-06T08:15:45;9.95;;;7.53;;
21848;SDS011;11089;49.852;19.700;2022-08-06T08:18:47;9.63;;;7.57;;
21848;SDS011;11089;49.852;19.700;2022-08-06T08:21:49;9.40;;;7.72;;
21848;SDS011;11089;49.852;19.700;2022-08-06T08:24:51;9.18;;;7.72;;
21848;SDS011;11089;49.852;19.700;2022-08-06T08:27:52;9.05;;;7.28;;
21848;SDS011;11089;49.852;19.700;2022-08-06T08:30:52;9.18;;;7.32;;
21848;SDS011;11089;49.852;19.700;2022-08-06T08:33:53;7.80;;;6.88;;
21848;SDS011;11089;49.852;19.700;2022-08-06T08:36:54;8.95;;;7.63;;
21848;SDS011;11089;49.852;19.700;2022-08-06T08:39:55;10.38;;;7.80;;
21848;SDS011;11089;49.852;19.700;2022-08-06T08:42:56;8.48;;;7.18;;
21848;SDS011;11089;49.852;19.700;2022-08-06T08:46:01;9.23;;;7.05;;
21848;SDS011;11089;49.852;19.700;2022-08-06T08:49:05;10.50;;;7.30;;
21848;SDS011;11089;49.852;19.700;2022-08-06T08:52:08;8.45;;;7.53;;
21848;SDS011;11089;49.852;19.700;2022-08-06T08:55:13;9.88;;;7.20;;
21848;SDS011;11089;49.852;19.700;2022-08-06T08:58:21;10.75;;;6.95;;
21848;SDS011;11089;49.852;19.700;2022-08-06T09:01:22;9.45;;;6.90;;
21848;SDS011;11089;49.852;19.700;2022-08-06T09:04:24;8.88;;;7.40;;
21848;SDS011;11089;49.852;19.700;2022-08-06T09:07:27;8.90;;;7.28;;
21848;SDS011;11089;49.852;19.700;2022-08-06T09:10:29;9.38;;;7.10;;
21848;SDS011;11089;49.852;19.700;2022-08-06T09:13:30;9.27;;;7.40;;
21848;SDS011;11089;49.852;19.700;2022-08-06T09:16:32;11.70;;;7.63;;
21848;SDS011;11089;49.852;19.700;2022-08-06T09:19:35;9.15;;;7.35;;
21848;SDS011;11089;49.852;19.700;2022-08-06T09:22:36;7.43;;;6.30;;
21848;SDS011;11089;49.852;19.700;2022-08-06T09:25:41;8.30;;;6.35;;
21848;SDS011;11089;49.852;19.700;2022-08-06T09:28:44;7.40;;;6.25;;
21848;SDS011;11089;49.852;19.700;2022-08-06T09:31:45;7.30;;;6.10;;
21848;SDS011;11089;49.852;19.700;2022-08-06T09:34:46;7.75;;;5.95;;
21848;SDS011;11089;49.852;19.700;2022-08-06T09:37:47;9.07;;;6.47;;
21848;SDS011;11089;49.852;19.700;2022-08-06T09:44:09;35.08;;;23.92;;
21848;SDS011;11089;49.852;19.700;2022-08-06T09:47:18;26.30;;;18.25;;
21848;SDS011;11089;49.852;19.700;2022-08-06T09:53:37;19.80;;;13.82;;
21848;SDS011;11089;49.852;19.700;2022-08-06T09:56:57;12.27;;;8.82;;
21848;SDS011;11089;49.852;19.700;2022-08-06T09:59:58;7.35;;;6.18;;
21848;SDS011;11089;49.852;19.700;2022-08-06T10:03:06;7.25;;;6.25;;
21848;SDS011;11089;49.852;19.700;2022-08-06T10:06:09;8.23;;;5.97;;
21848;SDS011;11089;49.852;19.700;2022-08-06T10:09:12;8.18;;;5.70;;
21848;SDS011;11089;49.852;19.700;2022-08-06T10:12:20;6.38;;;5.22;;
21848;SDS011;11089;49.852;19.700;2022-08-06T10:15:27;8.70;;;5.20;;
21848;SDS011;11089;49.852;19.700;2022-08-06T10:18:34;7.00;;;5.53;;
21848;SDS011;11089;49.852;19.700;2022-08-06T10:21:35;5.35;;;4.85;;
21848;SDS011;11089;49.852;19.700;2022-08-06T10:24:37;8.02;;;4.90;;
21848;SDS011;11089;49.852;19.700;2022-08-06T10:27:42;6.57;;;4.57;;
21848;SDS011;11089;49.852;19.700;2022-08-06T10:30:43;5.25;;;4.40;;
21848;SDS011;11089;49.852;19.700;2022-08-06T10:37:04;4.65;;;4.13;;
21848;SDS011;11089;49.852;19.700;2022-08-06T10:40:09;5.97;;;4.80;;
21848;SDS011;11089;49.852;19.700;2022-08-06T10:43:14;11.00;;;7.10;;
21848;SDS011;11089;49.852;19.700;2022-08-06T10:46:16;10.40;;;6.70;;
21848;SDS011;11089;49.852;19.700;2022-08-06T10:49:21;13.23;;;8.82;;
21848;SDS011;11089;49.852;19.700;2022-08-06T10:52:22;5.35;;;4.38;;
21848;SDS011;11089;49.852;19.700;2022-08-06T10:55:24;8.27;;;4.18;;
21848;SDS011;11089;49.852;19.700;2022-08-06T10:58:27;6.28;;;4.45;;
21848;SDS011;11089;49.852;19.700;2022-08-06T11:01:38;4.03;;;3.55;;
21848;SDS011;11089;49.852;19.700;2022-08-06T11:04:54;4.35;;;2.92;;
21848;SDS011;11089;49.852;19.700;2022-08-06T11:14:44;2.83;;;2.38;;
21848;SDS011;11089;49.852;19.700;2022-08-06T11:21:02;2.97;;;2.00;;
21848;SDS011;11089;49.852;19.700;2022-08-06T11:24:03;2.53;;;2.05;;
21848;SDS011;11089;49.852;19.700;2022-08-06T11:27:47;2.28;;;2.03;;
21848;SDS011;11089;49.852;19.700;2022-08-06T11:30:41;2.55;;;2.30;;
21848;SDS011;11089;49.852;19.700;2022-08-06T11:33:57;2.67;;;2.45;;
21848;SDS011;11089;49.852;19.700;2022-08-06T11:36:59;3.75;;;2.85;;
21848;SDS011;11089;49.852;19.700;2022-08-06T11:40:04;4.38;;;2.85;;
21848;SDS011;11089;49.852;19.700;2022-08-06T11:43:07;3.08;;;2.72;;
21848;SDS011;11089;49.852;19.700;2022-08-06T11:52:38;4.63;;;3.42;;
21848;SDS011;11089;49.852;19.700;2022-08-06T11:59:13;4.63;;;3.50;;
21848;SDS011;11089;49.852;19.700;2022-08-06T12:02:15;5.15;;;4.22;;
21848;SDS011;11089;49.852;19.700;2022-08-06T12:05:37;6.47;;;3.80;;
21848;SDS011;11089;49.852;19.700;2022-08-06T12:08:39;5.32;;;4.40;;
21848;SDS011;11089;49.852;19.700;2022-08-06T12:11:40;4.60;;;4.20;;
21848;SDS011;11089;49.852;19.700;2022-08-06T12:14:41;5.15;;;3.95;;
21848;SDS011;11089;49.852;19.700;2022-08-06T12:17:42;5.05;;;3.80;;
21848;SDS011;11089;49.852;19.700;2022-08-06T12:20:59;6.07;;;4.43;;
21848;SDS011;11089;49.852;19.700;2022-08-06T12:24:00;26.23;;;4.53;;
21848;SDS011;11089;49.852;19.700;2022-08-06T12:27:06;3.85;;;3.55;;
21848;SDS011;11089;49.852;19.700;2022-08-06T12:30:07;4.20;;;3.20;;
21848;SDS011;11089;49.852;19.700;2022-08-06T12:33:09;3.80;;;3.50;;
21848;SDS011;11089;49.852;19.700;2022-08-06T12:36:10;4.60;;;3.55;;
21848;SDS011;11089;49.852;19.700;2022-08-06T12:39:11;9.75;;;5.97;;
21848;SDS011;11089;49.852;19.700;2022-08-06T12:42:21;14.45;;;7.82;;
21848;SDS011;11089;49.852;19.700;2022-08-06T12:45:25;12.85;;;7.10;;
21848;SDS011;11089;49.852;19.700;2022-08-06T12:48:27;13.35;;;7.50;;
21848;SDS011;11089;49.852;19.700;2022-08-06T12:51:28;9.85;;;6.15;;
21848;SDS011;11089;49.852;19.700;2022-08-06T12:54:29;7.22;;;4.90;;
21848;SDS011;11089;49.852;19.700;2022-08-06T12:57:33;8.43;;;4.93;;
21848;SDS011;11089;49.852;19.700;2022-08-06T13:00:34;16.33;;;8.93;;
21848;SDS011;11089;49.852;19.700;2022-08-06T13:03:37;9.73;;;5.72;;
21848;SDS011;11089;49.852;19.700;2022-08-06T13:06:39;9.73;;;5.13;;
21848;SDS011;11089;49.852;19.700;2022-08-06T13:09:41;8.45;;;5.50;;
21848;SDS011;11089;49.852;19.700;2022-08-06T13:12:43;7.43;;;4.90;;
21848;SDS011;11089;49.852;19.700;2022-08-06T13:16:02;6.68;;;4.50;;
21848;SDS011;11089;49.852;19.700;2022-08-06T13:19:08;9.27;;;6.35;;
21848;SDS011;11089;49.852;19.700;2022-08-06T13:22:11;10.27;;;6.03;;
21848;SDS011;11089;49.852;19.700;2022-08-06T13:25:16;9.15;;;6.05;;
21848;SDS011;11089;49.852;19.700;2022-08-06T13:28:20;8.60;;;5.15;;
21848;SDS011;11089;49.852;19.700;2022-08-06T13:31:23;6.70;;;3.78;;
21848;SDS011;11089;49.852;19.700;2022-08-06T13:34:24;3.45;;;3.15;;
21848;SDS011;11089;49.852;19.700;2022-08-06T13:40:44;4.18;;;3.63;;
21848;SDS011;11089;49.852;19.700;2022-08-06T13:43:47;4.10;;;3.70;;
21848;SDS011;11089;49.852;19.700;2022-08-06T13:46:47;5.13;;;3.83;;
21848;SDS011;11089;49.852;19.700;2022-08-06T13:49:49;4.05;;;3.55;;
21848;SDS011;11089;49.852;19.700;2022-08-06T13:52:49;4.57;;;3.17;;
21848;SDS011;11089;49.852;19.700;2022-08-06T13:55:51;4.03;;;2.67;;
21848;SDS011;11089;49.852;19.700;2022-08-06T13:58:52;2.95;;;2.67;;
21848;SDS011;11089;49.852;19.700;2022-08-06T14:01:53;3.75;;;3.08;;
21848;SDS011;11089;49.852;19.700;2022-08-06T14:04:57;4.18;;;3.30;;
21848;SDS011;11089;49.852;19.700;2022-08-06T14:07:58;3.75;;;3.13;;
21848;SDS011;11089;49.852;19.700;2022-08-06T14:10:58;5.07;;;3.33;;
21848;SDS011;11089;49.852;19.700;2022-08-06T14:13:59;4.07;;;3.17;;
21848;SDS011;11089;49.852;19.700;2022-08-06T14:17:00;2.83;;;2.60;;
21848;SDS011;11089;49.852;19.700;2022-08-06T14:20:02;2.92;;;2.72;;
21848;SDS011;11089;49.852;19.700;2022-08-06T14:23:04;3.80;;;3.22;;
21848;SDS011;11089;49.852;19.700;2022-08-06T14:26:06;3.97;;;3.28;;
21848;SDS011;11089;49.852;19.700;2022-08-06T14:29:07;3.90;;;3.40;;
21848;SDS011;11089;49.852;19.700;2022-08-06T14:32:08;6.72;;;3.40;;
21848;SDS011;11089;49.852;19.700;2022-08-06T14:35:09;4.05;;;3.58;;
21848;SDS011;11089;49.852;19.700;2022-08-06T14:38:11;6.25;;;4.13;;
21848;SDS011;11089;49.852;19.700;2022-08-06T14:41:12;5.45;;;4.60;;
21848;SDS011;11089;49.852;19.700;2022-08-06T14:44:27;6.88;;;4.88;;
21848;SDS011;11089;49.852;19.700;2022-08-06T14:47:42;7.15;;;4.90;;
21848;SDS011;11089;49.852;19.700;2022-08-06T14:50:47;5.05;;;4.30;;
21848;SDS011;11089;49.852;19.700;2022-08-06T14:53:48;7.07;;;5.28;;
21848;SDS011;11089;49.852;19.700;2022-08-06T14:56:50;5.85;;;4.82;;
21848;SDS011;11089;49.852;19.700;2022-08-06T14:59:51;6.20;;;4.85;;
21848;SDS011;11089;49.852;19.700;2022-08-06T15:02:57;8.70;;;5.90;;
21848;SDS011;11089;49.852;19.700;2022-08-06T15:05:58;8.07;;;6.32;;
21848;SDS011;11089;49.852;19.700;2022-08-06T15:09:00;9.30;;;6.97;;
21848;SDS011;11089;49.852;19.700;2022-08-06T15:12:02;10.13;;;7.65;;
21848;SDS011;11089;49.852;19.700;2022-08-06T15:15:04;11.32;;;6.80;;
21848;SDS011;11089;49.852;19.700;2022-08-06T15:18:05;9.95;;;6.70;;
21848;SDS011;11089;49.852;19.700;2022-08-06T15:21:06;9.70;;;6.70;;
21848;SDS011;11089;49.852;19.700;2022-08-06T15:24:07;10.32;;;6.90;;
21848;SDS011;11089;49.852;19.700;2022-08-06T15:27:08;10.65;;;7.10;;
21848;SDS011;11089;49.852;19.700;2022-08-06T15:30:09;10.27;;;6.93;;
21848;SDS011;11089;49.852;19.700;2022-08-06T15:33:11;13.02;;;8.13;;
21848;SDS011;11089;49.852;19.700;2022-08-06T15:36:12;12.57;;;7.65;;
21848;SDS011;11089;49.852;19.700;2022-08-06T15:39:13;10.43;;;7.97;;
21848;SDS011;11089;49.852;19.700;2022-08-06T15:42:14;11.93;;;8.60;;
21848;SDS011;11089;49.852;19.700;2022-08-06T15:45:16;12.18;;;7.60;;
21848;SDS011;11089;49.852;19.700;2022-08-06T15:48:17;10.63;;;8.05;;
21848;SDS011;11089;49.852;19.700;2022-08-06T15:51:23;12.18;;;9.23;;
21848;SDS011;11089;49.852;19.700;2022-08-06T15:54:25;11.80;;;8.60;;
21848;SDS011;11089;49.852;19.700;2022-08-06T15:57:26;10.90;;;8.23;;
21848;SDS011;11089;49.852;19.700;2022-08-06T16:00:27;13.23;;;9.25;;
21848;SDS011;11089;49.852;19.700;2022-08-06T16:03:28;12.68;;;8.88;;
21848;SDS011;11089;49.852;19.700;2022-08-06T16:06:29;12.00;;;8.95;;
21848;SDS011;11089;49.852;19.700;2022-08-06T16:09:30;11.30;;;8.77;;
21848;SDS011;11089;49.852;19.700;2022-08-06T16:12:35;14.30;;;8.95;;
21848;SDS011;11089;49.852;19.700;2022-08-06T16:15:50;14.90;;;10.18;;
21848;SDS011;11089;49.852;19.700;2022-08-06T16:18:52;13.15;;;10.00;;
21848;SDS011;11089;49.852;19.700;2022-08-06T16:21:53;16.15;;;10.45;;
21848;SDS011;11089;49.852;19.700;2022-08-06T16:24:54;14.43;;;10.18;;
21848;SDS011;11089;49.852;19.700;2022-08-06T16:27:55;13.57;;;9.90;;
21848;SDS011;11089;49.852;19.700;2022-08-06T16:30:56;11.73;;;8.63;;
21848;SDS011;11089;49.852;19.700;2022-08-06T16:33:57;15.80;;;9.55;;
21848;SDS011;11089;49.852;19.700;2022-08-06T16:36:59;13.48;;;9.80;;
21848;SDS011;11089;49.852;19.700;2022-08-06T16:40:01;13.07;;;9.85;;
21848;SDS011;11089;49.852;19.700;2022-08-06T16:43:02;13.35;;;10.15;;
21848;SDS011;11089;49.852;19.700;2022-08-06T16:46:03;14.70;;;9.77;;
21848;SDS011;11089;49.852;19.700;2022-08-06T16:49:04;16.55;;;10.73;;
21848;SDS011;11089;49.852;19.700;2022-08-06T16:52:05;16.55;;;10.63;;
21848;SDS011;11089;49.852;19.700;2022-08-06T16:55:07;19.83;;;11.68;;
21848;SDS011;11089;49.852;19.700;2022-08-06T16:58:09;17.92;;;11.18;;
21848;SDS011;11089;49.852;19.700;2022-08-06T17:01:10;15.52;;;11.35;;
21848;SDS011;11089;49.852;19.700;2022-08-06T17:04:12;19.98;;;11.35;;
21848;SDS011;11089;49.852;19.700;2022-08-06T17:07:13;19.75;;;12.35;;
21848;SDS011;11089;49.852;19.700;2022-08-06T17:10:14;16.70;;;11.55;;
21848;SDS011;11089;49.852;19.700;2022-08-06T17:13:16;16.13;;;11.23;;
21848;SDS011;11089;49.852;19.700;2022-08-06T17:16:17;17.90;;;11.20;;
21848;SDS011;11089;49.852;19.700;2022-08-06T17:19:17;14.38;;;10.38;;
21848;SDS011;11089;49.852;19.700;2022-08-06T17:22:18;17.23;;;11.00;;
21848;SDS011;11089;49.852;19.700;2022-08-06T17:25:20;16.63;;;10.50;;
21848;SDS011;11089;49.852;19.700;2022-08-06T17:28:21;20.42;;;10.45;;
21848;SDS011;11089;49.852;19.700;2022-08-06T17:31:23;18.30;;;10.15;;
21848;SDS011;11089;49.852;19.700;2022-08-06T17:34:24;16.35;;;10.93;;
21848;SDS011;11089;49.852;19.700;2022-08-06T17:37:26;15.32;;;10.10;;
21848;SDS011;11089;49.852;19.700;2022-08-06T17:40:27;13.93;;;9.52;;
21848;SDS011;11089;49.852;19.700;2022-08-06T17:43:27;12.55;;;8.88;;
21848;SDS011;11089;49.852;19.700;2022-08-06T17:46:28;15.05;;;9.85;;
21848;SDS011;11089;49.852;19.700;2022-08-06T17:49:29;19.35;;;9.65;;
21848;SDS011;11089;49.852;19.700;2022-08-06T17:52:33;11.27;;;8.65;;
21848;SDS011;11089;49.852;19.700;2022-08-06T17:55:34;16.17;;;9.32;;
21848;SDS011;11089;49.852;19.700;2022-08-06T17:58:35;12.70;;;8.82;;
21848;SDS011;11089;49.852;19.700;2022-08-06T18:01:36;13.23;;;9.13;;
21848;SDS011;11089;49.852;19.700;2022-08-06T18:04:38;13.45;;;8.68;;
21848;SDS011;11089;49.852;19.700;2022-08-06T18:07:39;12.68;;;8.25;;
21848;SDS011;11089;49.852;19.700;2022-08-06T18:10:40;11.43;;;8.38;;
21848;SDS011;11089;49.852;19.700;2022-08-06T18:13:41;13.63;;;9.00;;
21848;SDS011;11089;49.852;19.700;2022-08-06T18:16:43;17.20;;;9.00;;
21848;SDS011;11089;49.852;19.700;2022-08-06T18:19:44;10.93;;;8.45;;
21848;SDS011;11089;49.852;19.700;2022-08-06T18:22:46;11.82;;;8.63;;
21848;SDS011;11089;49.852;19.700;2022-08-06T18:25:48;11.18;;;7.80;;
21848;SDS011;11089;49.852;19.700;2022-08-06T18:28:50;10.93;;;8.25;;
21848;SDS011;11089;49.852;19.700;2022-08-06T18:31:51;11.05;;;7.65;;
21848;SDS011;11089;49.852;19.700;2022-08-06T18:34:51;11.20;;;7.25;;
21848;SDS011;11089;49.852;19.700;2022-08-06T18:37:52;8.25;;;6.78;;
21848;SDS011;11089;49.852;19.700;2022-08-06T18:40:53;9.93;;;6.95;;
21848;SDS011;11089;49.852;19.700;2022-08-06T18:43:55;9.30;;;6.57;;
21848;SDS011;11089;49.852;19.700;2022-08-06T18:46:56;8.48;;;6.80;;
21848;SDS011;11089;49.852;19.700;2022-08-06T18:49:57;9.43;;;7.10;;
21848;SDS011;11089;49.852;19.700;2022-08-06T18:52:58;12.80;;;7.35;;
21848;SDS011;11089;49.852;19.700;2022-08-06T18:56:00;9.60;;;7.60;;
21848;SDS011;11089;49.852;19.700;2022-08-06T18:59:01;11.45;;;7.38;;
21848;SDS011;11089;49.852;19.700;2022-08-06T19:02:02;10.75;;;7.68;;
21848;SDS011;11089;49.852;19.700;2022-08-06T19:05:04;13.60;;;7.85;;
21848;SDS011;11089;49.852;19.700;2022-08-06T19:08:05;8.73;;;7.20;;
21848;SDS011;11089;49.852;19.700;2022-08-06T19:11:06;10.85;;;7.75;;